Time;durP1;ratioP1;P1;durP2;ratioP2;P2;SDS_P1;SDS_P2;PMS_P1;PMS_P2;Temp;Humidity;BMP_temperature;BMP_pressure;BME280_temperature;BME280_humidity;BME280_pressure;Samples;Min_cycle;Max_cycle;Signal;HPM_P1;HPM_P2
2022/03/07 00:00:48;;;;;;;4.60;2.57;;;11.20;99.90;;;;;;5033010;28;20213;-94
2022/03/07 00:03:20;;;;;;;4.63;2.47;;;11.10;99.90;;;;;;5030051;28;20236;-93
2022/03/07 00:05:51;;;;;;;4.93;2.63;;;11.00;99.90;;;;;;5028319;28;20208;-92
2022/03/07 00:08:22;;;;;;;5.53;2.77;;;10.90;99.90;;;;;;5025683;28;20228;-94
2022/03/07 00:11:06;;;;;;;4.97;2.67;;;10.80;99.90;;;;;;5025243;28;20210;-93
2022/03/07 00:13:37;;;;;;;3.77;2.47;;;10.90;99.90;;;;;;5028409;28;20216;-92
2022/03/07 00:16:09;;;;;;;3.80;2.40;;;10.90;99.90;;;;;;5028174;28;20213;-94
2022/03/07 00:18:41;;;;;;;5.20;2.47;;;10.90;99.90;;;;;;5034556;28;20198;-92
2022/03/07 00:21:12;;;;;;;3.27;2.30;;;10.90;99.90;;;;;;5037678;28;20194;-94
2022/03/07 00:23:43;;;;;;;4.53;2.43;;;10.90;99.90;;;;;;5037961;28;20194;-92
2022/03/07 00:26:19;;;;;;;7.20;2.40;;;11.10;99.90;;;;;;5170082;22;20232;-88
2022/03/07 00:28:54;;;;;;;5.80;2.50;;;11.20;99.90;;;;;;5108300;22;20244;-92
2022/03/07 00:31:27;;;;;;;4.73;2.80;;;11.20;99.90;;;;;;5259790;22;20216;-89
2022/03/07 00:34:01;;;;;;;4.10;2.43;;;11.20;99.90;;;;;;5012756;28;20253;-95
2022/03/07 00:36:33;;;;;;;4.43;2.53;;;11.30;99.90;;;;;;5011670;28;20221;-92
2022/03/07 00:39:05;;;;;;;3.90;2.50;;;11.30;99.90;;;;;;5015768;28;20205;-93
2022/03/07 00:46:59;;;;;;;3.80;2.00;;;10.90;99.90;;;;;;5016455;28;20249;-93
2022/03/07 00:52:06;;;;;;;5.93;2.67;;;10.80;99.90;;;;;;5760159;23;20244;-94
2022/03/07 00:54:40;;;;;;;3.80;2.20;;;10.60;99.90;;;;;;5037115;28;20244;-93
2022/03/07 00:57:14;;;;;;;6.83;2.60;;;10.40;99.90;;;;;;5213654;23;20642;-95
2022/03/07 00:59:47;;;;;;;3.90;2.37;;;10.40;99.90;;;;;;5037646;28;20207;-93
2022/03/07 01:02:18;;;;;;;3.97;2.13;;;10.40;99.90;;;;;;5037775;28;20209;-94
2022/03/07 01:04:50;;;;;;;5.53;2.57;;;10.30;99.90;;;;;;5037876;28;20195;-93
2022/03/07 01:07:21;;;;;;;4.90;2.53;;;10.40;99.90;;;;;;5037509;28;20200;-94
2022/03/07 01:09:53;;;;;;;4.37;2.77;;;10.30;99.90;;;;;;5037861;28;20186;-90
2022/03/07 01:15:05;;;;;;;4.47;2.60;;;10.40;99.90;;;;;;5016589;28;20252;-94
2022/03/07 01:17:38;;;;;;;5.43;2.60;;;10.30;99.90;;;;;;5017362;28;20198;-93
2022/03/07 01:20:17;;;;;;;5.87;2.10;;;10.30;99.90;;;;;;5017849;28;20194;-91
2022/03/07 01:23:02;;;;;;;5.33;2.40;;;10.20;99.90;;;;;;5017440;28;20197;-93
2022/03/07 01:25:33;;;;;;;4.13;2.87;;;10.20;99.90;;;;;;5017275;28;20217;-93
2022/03/07 01:28:05;;;;;;;3.20;2.50;;;10.10;99.90;;;;;;5015816;28;20194;-93
2022/03/07 01:30:39;;;;;;;4.27;2.40;;;10.10;99.90;;;;;;5016212;28;20205;-93
2022/03/07 01:33:11;;;;;;;4.27;2.30;;;10.00;99.90;;;;;;5017204;28;20217;-93
2022/03/07 01:35:44;;;;;;;7.13;2.40;;;9.80;99.90;;;;;;5014487;28;20277;-94
2022/03/07 01:38:16;;;;;;;3.83;2.10;;;9.70;99.90;;;;;;5012034;28;20214;-93
2022/03/07 01:43:29;;;;;;;11.13;3.87;;;9.40;99.90;;;;;;5169354;23;20280;-94
2022/03/07 01:46:03;;;;;;;8.70;4.30;;;9.30;99.90;;;;;;5034343;28;20220;-93
2022/03/07 01:48:34;;;;;;;8.47;4.10;;;9.20;99.90;;;;;;5031280;28;20580;-93
2022/03/07 01:51:06;;;;;;;4.63;2.90;;;9.00;99.90;;;;;;5031839;28;20233;-94
2022/03/07 01:53:38;;;;;;;5.57;2.90;;;8.90;99.90;;;;;;5032513;28;20241;-93
2022/03/07 01:56:10;;;;;;;4.03;2.63;;;8.80;99.90;;;;;;5033677;28;20245;-93
2022/03/07 01:58:42;;;;;;;5.93;2.90;;;8.70;99.90;;;;;;5030883;28;20214;-92
2022/03/07 02:01:16;;;;;;;3.00;2.47;;;8.60;99.90;;;;;;5028259;28;20691;-93
2022/03/07 02:03:48;;;;;;;2.63;2.33;;;8.40;99.90;;;;;;5023655;28;20207;-93
2022/03/07 02:06:21;;;;;;;7.47;2.80;;;8.30;99.90;;;;;;5030079;28;20209;-93
2022/03/07 02:08:53;;;;;;;4.73;2.20;;;8.20;99.90;;;;;;5022477;28;20310;-93
2022/03/07 02:11:25;;;;;;;5.73;2.50;;;8.10;99.90;;;;;;5022310;28;20321;-93
2022/03/07 02:13:56;;;;;;;3.70;2.37;;;8.00;99.90;;;;;;5029879;28;20213;-93
2022/03/07 02:16:29;;;;;;;6.07;3.10;;;7.90;99.90;;;;;;5023542;28;20230;-92
2022/03/07 02:19:00;;;;;;;4.17;2.70;;;7.90;99.90;;;;;;5022024;28;20206;-92
2022/03/07 02:21:34;;;;;;;5.33;2.97;;;7.80;99.90;;;;;;5024859;28;20229;-94
2022/03/07 02:24:09;;;;;;;4.20;3.30;;;7.70;99.90;;;;;;5025853;28;20277;-93
2022/03/07 02:26:40;;;;;;;7.10;3.30;;;7.70;99.90;;;;;;5026468;28;20210;-93
2022/03/07 02:29:13;;;;;;;7.20;3.20;;;7.60;99.90;;;;;;5034882;28;20232;-93
2022/03/07 02:31:45;;;;;;;5.80;3.40;;;7.50;99.90;;;;;;5033620;28;20190;-94
2022/03/07 02:34:16;;;;;;;4.57;3.60;;;7.40;99.90;;;;;;5039221;28;20193;-92
2022/03/07 02:36:48;;;;;;;6.63;3.87;;;7.30;99.90;;;;;;5040103;28;20233;-92
2022/03/07 02:39:22;;;;;;;10.70;6.40;;;7.30;99.90;;;;;;5391274;23;20217;-93
2022/03/07 02:41:54;;;;;;;12.90;6.80;;;7.20;99.90;;;;;;5035755;28;20217;-91
2022/03/07 02:44:26;;;;;;;6.90;5.50;;;7.10;99.90;;;;;;5037062;28;20238;-93
2022/03/07 02:47:00;;;;;;;8.10;4.73;;;7.10;99.90;;;;;;5035201;28;20214;-94
2022/03/07 02:49:33;;;;;;;10.50;5.40;;;7.00;99.90;;;;;;5033422;28;20288;-94
2022/03/07 02:52:05;;;;;;;6.20;4.27;;;7.00;99.90;;;;;;5031479;28;20208;-94
2022/03/07 02:54:41;;;;;;;6.33;4.00;;;7.00;99.90;;;;;;5035078;28;20252;-93
2022/03/07 02:57:13;;;;;;;5.53;4.07;;;6.90;99.90;;;;;;5031660;28;20338;-92
2022/03/07 02:59:44;;;;;;;10.33;3.67;;;6.90;99.90;;;;;;5036532;28;20244;-92
2022/03/07 03:02:15;;;;;;;5.80;4.30;;;6.80;99.90;;;;;;5034551;28;20707;-93
2022/03/07 03:04:46;;;;;;;6.00;3.60;;;6.80;99.90;;;;;;5034756;28;20253;-92
2022/03/07 03:07:18;;;;;;;5.47;3.77;;;6.70;99.90;;;;;;5033059;28;20211;-93
2022/03/07 03:09:55;;;;;;;5.00;3.10;;;6.60;99.90;;;;;;5033884;28;20189;-92
2022/03/07 03:12:26;;;;;;;4.67;3.50;;;6.60;99.90;;;;;;5033422;28;20193;-94
2022/03/07 03:14:59;;;;;;;4.00;3.20;;;6.60;99.90;;;;;;4685100;28;10000631;-93
2022/03/07 03:17:30;;;;;;;4.23;3.23;;;6.60;99.90;;;;;;5031313;28;20210;-93
2022/03/07 03:20:02;;;;;;;5.63;3.70;;;6.60;99.90;;;;;;5030935;28;20220;-94
2022/03/07 03:22:33;;;;;;;4.70;3.30;;;6.60;99.90;;;;;;5032638;28;20210;-94
2022/03/07 03:25:07;;;;;;;5.93;2.93;;;6.50;99.90;;;;;;5026384;28;20216;-92
2022/03/07 03:27:39;;;;;;;4.20;3.47;;;6.50;99.90;;;;;;5028993;28;20209;-93
2022/03/07 03:30:13;;;;;;;4.80;3.20;;;6.50;99.90;;;;;;5030108;28;20205;-93
2022/03/07 03:32:45;;;;;;;5.43;3.37;;;6.50;99.90;;;;;;5030891;28;20206;-93
2022/03/07 03:35:18;;;;;;;6.30;3.60;;;6.50;99.90;;;;;;5029853;28;20210;-94
2022/03/07 03:37:51;;;;;;;5.37;4.10;;;6.50;99.90;;;;;;5029098;28;20248;-94
2022/03/07 03:40:25;;;;;;;5.10;3.57;;;6.40;99.90;;;;;;5032072;28;20229;-93
2022/03/07 03:42:58;;;;;;;5.67;3.47;;;6.40;99.90;;;;;;5029920;28;20215;-93
2022/03/07 03:45:31;;;;;;;6.43;4.47;;;6.30;99.90;;;;;;5031654;28;20267;-94
2022/03/07 03:48:03;;;;;;;4.40;3.00;;;6.30;99.90;;;;;;5030393;28;20213;-90
2022/03/07 03:50:35;;;;;;;4.30;3.03;;;6.20;99.90;;;;;;5033097;28;20209;-93
2022/03/07 03:53:07;;;;;;;5.17;2.73;;;6.20;99.90;;;;;;5032140;28;20213;-94
2022/03/07 03:55:41;;;;;;;5.20;2.97;;;6.20;99.90;;;;;;5033705;28;20209;-93
2022/03/07 03:58:13;;;;;;;4.40;2.83;;;6.20;99.90;;;;;;5034280;28;20197;-94
2022/03/07 04:00:44;;;;;;;5.20;2.87;;;6.20;99.90;;;;;;5037075;28;20201;-93
2022/03/07 04:03:16;;;;;;;5.13;3.30;;;6.20;99.90;;;;;;5036645;28;20213;-92
2022/03/07 04:05:48;;;;;;;4.77;3.00;;;6.10;99.90;;;;;;5036009;28;20195;-93
2022/03/07 04:08:35;;;;;;;5.20;3.40;;;6.10;99.90;;;;;;5024232;28;20218;-92
2022/03/07 04:11:09;;;;;;;6.47;3.27;;;6.10;99.90;;;;;;5001540;28;20269;-92
2022/03/07 04:13:40;;;;;;;6.60;2.77;;;6.00;99.90;;;;;;5012077;28;20214;-94
2022/03/07 04:16:12;;;;;;;5.70;3.30;;;6.00;99.90;;;;;;5009361;28;20225;-92
2022/03/07 04:18:44;;;;;;;4.87;3.30;;;6.00;99.90;;;;;;5010892;28;20207;-93
2022/03/07 04:21:16;;;;;;;6.13;3.77;;;5.90;99.90;;;;;;5010893;28;20629;-92
2022/03/07 04:23:47;;;;;;;5.57;3.07;;;5.90;99.90;;;;;;5019396;28;20293;-92
2022/03/07 04:26:21;;;;;;;4.70;3.47;;;5.80;99.90;;;;;;5027738;28;20220;-93
2022/03/07 04:28:52;;;;;;;5.90;3.30;;;5.80;99.90;;;;;;5030188;28;20213;-92
2022/03/07 04:31:24;;;;;;;5.77;3.73;;;5.70;99.90;;;;;;5029439;28;20236;-92
2022/03/07 04:33:54;;;;;;;5.00;3.97;;;5.70;99.90;;;;;;5029820;28;20213;-92
2022/03/07 04:36:26;;;;;;;5.97;4.17;;;5.70;99.90;;;;;;5028833;28;20265;-94
2022/03/07 04:38:57;;;;;;;5.07;3.50;;;5.60;99.90;;;;;;5024600;28;20237;-92
2022/03/07 04:41:30;;;;;;;5.13;3.80;;;5.60;99.90;;;;;;5020836;28;20241;-92
2022/03/07 04:44:02;;;;;;;6.37;3.77;;;5.60;99.90;;;;;;5019282;28;20236;-94
2022/03/07 04:46:34;;;;;;;7.47;3.87;;;5.60;99.90;;;;;;5032779;28;20208;-92
2022/03/07 04:49:05;;;;;;;4.03;3.57;;;5.60;99.90;;;;;;5036241;28;20201;-92
2022/03/07 04:51:39;;;;;;;8.40;4.07;;;5.50;99.90;;;;;;5136282;23;20293;-93
2022/03/07 04:54:10;;;;;;;6.93;4.17;;;5.50;99.90;;;;;;5034774;28;20197;-93
2022/03/07 04:56:47;;;;;;;6.70;4.50;;;5.40;99.90;;;;;;5032345;28;20229;-92
2022/03/07 04:59:19;;;;;;;6.73;3.97;;;5.40;99.90;;;;;;5028033;28;20255;-92
2022/03/07 05:01:50;;;;;;;5.90;4.20;;;5.40;99.90;;;;;;5027575;28;20203;-92
2022/03/07 05:04:21;;;;;;;6.00;4.23;;;5.30;99.90;;;;;;5031360;28;20220;-91
2022/03/07 05:06:58;;;;;;;5.10;4.03;;;5.30;99.90;;;;;;5034060;28;20212;-93
2022/03/07 05:09:30;;;;;;;9.37;4.40;;;5.30;99.90;;;;;;5032132;28;20244;-90
2022/03/07 05:12:02;;;;;;;5.63;4.80;;;5.30;99.90;;;;;;5032304;28;20220;-91
2022/03/07 05:14:33;;;;;;;7.67;5.10;;;5.20;99.90;;;;;;5030442;28;20236;-92
2022/03/07 05:17:05;;;;;;;9.93;4.90;;;5.20;99.90;;;;;;5029362;28;20237;-93
2022/03/07 05:19:36;;;;;;;8.20;5.80;;;5.20;99.90;;;;;;5020516;28;20206;-92
2022/03/07 05:22:08;;;;;;;8.83;5.07;;;5.20;99.90;;;;;;5023739;28;20241;-92
2022/03/07 05:24:39;;;;;;;7.27;4.83;;;5.10;99.90;;;;;;5022379;28;20217;-92
2022/03/07 05:27:14;;;;;;;11.60;5.23;;;5.00;99.90;;;;;;5024147;28;20212;-93
2022/03/07 05:29:45;;;;;;;9.27;6.50;;;5.00;99.90;;;;;;5027926;28;20216;-93
2022/03/07 05:32:17;;;;;;;8.60;5.87;;;4.90;99.90;;;;;;5023926;28;20621;-92
2022/03/07 05:34:48;;;;;;;9.27;5.60;;;4.90;99.90;;;;;;5027146;28;20268;-93
2022/03/07 05:37:20;;;;;;;9.13;6.23;;;4.90;99.90;;;;;;5043069;23;20252;-93
2022/03/07 05:39:52;;;;;;;11.30;6.37;;;4.90;99.90;;;;;;5031596;28;20240;-92
2022/03/07 05:42:25;;;;;;;10.30;6.40;;;4.80;99.90;;;;;;5035754;28;20228;-91
2022/03/07 05:44:57;;;;;;;8.90;6.00;;;4.80;99.90;;;;;;5035129;28;20181;-93
2022/03/07 05:47:28;;;;;;;13.10;6.70;;;4.80;99.90;;;;;;5035326;28;20232;-93
2022/03/07 05:50:00;;;;;;;11.60;6.70;;;4.80;99.90;;;;;;5031742;28;20210;-92
2022/03/07 05:52:32;;;;;;;11.13;6.40;;;4.70;99.90;;;;;;5030780;28;20635;-92
2022/03/07 05:55:04;;;;;;;10.23;6.50;;;4.70;99.90;;;;;;5025504;28;20225;-92
2022/03/07 05:57:37;;;;;;;8.53;5.13;;;4.70;99.90;;;;;;5017735;28;20269;-92
2022/03/07 06:00:10;;;;;;;8.80;5.13;;;4.70;99.90;;;;;;5016130;28;20263;-94
2022/03/07 06:02:42;;;;;;;11.23;5.53;;;4.60;99.90;;;;;;5018335;28;20206;-91
2022/03/07 06:05:14;;;;;;;10.83;5.50;;;4.60;99.90;;;;;;5018584;28;20267;-93
2022/03/07 06:07:46;;;;;;;10.73;5.60;;;4.60;99.90;;;;;;5084690;23;20252;-91
2022/03/07 06:10:17;;;;;;;9.13;5.07;;;4.60;99.90;;;;;;5028791;28;20205;-93
2022/03/07 06:12:52;;;;;;;11.40;5.43;;;4.50;99.90;;;;;;5021823;28;20257;-92
2022/03/07 06:15:24;;;;;;;9.10;4.93;;;4.50;99.90;;;;;;5029611;28;20301;-94
2022/03/07 06:17:58;;;;;;;8.83;4.80;;;4.40;99.90;;;;;;5025043;28;20234;-92
2022/03/07 06:20:30;;;;;;;6.73;4.73;;;4.40;99.90;;;;;;5025198;28;20193;-92
2022/03/07 06:23:04;;;;;;;8.13;5.77;;;4.40;99.90;;;;;;5030804;28;20268;-92
2022/03/07 06:25:36;;;;;;;9.40;6.43;;;4.40;99.90;;;;;;5019225;28;20240;-92
2022/03/07 06:28:11;;;;;;;11.57;6.43;;;4.20;99.90;;;;;;5016010;28;20292;-90
2022/03/07 06:30:42;;;;;;;8.80;6.40;;;4.20;99.90;;;;;;5015269;28;20286;-93
2022/03/07 06:33:15;;;;;;;9.90;5.93;;;4.20;99.90;;;;;;5019743;28;20205;-92
2022/03/07 06:35:46;;;;;;;13.33;6.30;;;4.20;99.90;;;;;;5020115;28;20210;-92
2022/03/07 06:38:16;;;;;;;10.70;6.33;;;4.20;99.90;;;;;;5023139;28;20712;-92
2022/03/07 06:40:50;;;;;;;7.83;5.77;;;4.20;99.90;;;;;;5019900;28;20256;-92
2022/03/07 06:43:23;;;;;;;9.43;6.27;;;4.10;99.90;;;;;;5028962;28;20201;-91
2022/03/07 06:45:54;;;;;;;8.77;6.43;;;4.10;99.90;;;;;;5021786;28;20286;-93
2022/03/07 06:48:25;;;;;;;12.53;6.93;;;4.10;99.90;;;;;;5017874;28;20344;-92
2022/03/07 06:50:56;;;;;;;8.10;6.17;;;4.10;99.90;;;;;;5021728;28;20265;-92
2022/03/07 06:53:27;;;;;;;11.53;7.07;;;4.10;99.90;;;;;;5018362;28;20622;-91
2022/03/07 06:55:59;;;;;;;10.90;6.83;;;4.10;99.90;;;;;;5019225;28;20202;-93
2022/03/07 06:58:35;;;;;;;8.90;6.73;;;4.10;99.90;;;;;;5023364;28;20241;-92
2022/03/07 07:01:07;;;;;;;8.90;5.70;;;4.00;99.90;;;;;;5033893;28;20207;-91
2022/03/07 07:03:39;;;;;;;8.17;5.47;;;4.00;99.90;;;;;;5032578;28;20273;-93
2022/03/07 07:06:12;;;;;;;10.37;5.83;;;4.00;99.90;;;;;;5038399;28;20205;-91
2022/03/07 07:08:43;;;;;;;8.33;6.17;;;3.90;99.90;;;;;;5037188;28;20221;-92
2022/03/07 07:11:14;;;;;;;10.80;6.10;;;3.90;99.90;;;;;;5030663;28;20216;-91
2022/03/07 07:13:49;;;;;;;12.73;6.53;;;3.90;99.90;;;;;;5031538;28;20202;-92
2022/03/07 07:16:20;;;;;;;11.97;9.07;;;3.90;99.90;;;;;;5020056;28;20292;-93
2022/03/07 07:18:51;;;;;;;10.00;6.67;;;3.90;99.90;;;;;;5020417;28;20241;-92
2022/03/07 07:21:23;;;;;;;7.70;6.40;;;3.80;99.90;;;;;;5021588;28;20229;-93
2022/03/07 07:23:54;;;;;;;9.20;5.83;;;3.80;99.90;;;;;;5001927;28;20235;-93
2022/03/07 07:26:26;;;;;;;6.90;5.60;;;3.80;99.90;;;;;;5018183;28;20241;-92
2022/03/07 07:29:07;;;;;;;11.47;6.13;;;3.80;99.90;;;;;;5017407;28;20214;-92
2022/03/07 07:31:39;;;;;;;9.53;6.07;;;3.70;99.90;;;;;;5018837;28;20206;-92
2022/03/07 07:34:10;;;;;;;8.27;5.53;;;3.70;99.90;;;;;;5018411;28;20252;-93
2022/03/07 07:36:41;;;;;;;7.53;5.97;;;3.70;99.90;;;;;;5019557;28;20282;-92
2022/03/07 07:39:12;;;;;;;10.87;5.73;;;3.60;99.90;;;;;;5017205;28;20324;-92
2022/03/07 07:41:44;;;;;;;7.83;5.67;;;3.60;99.90;;;;;;5018149;28;20699;-93
2022/03/07 07:44:17;;;;;;;7.70;5.77;;;3.60;99.90;;;;;;5017644;28;20205;-91
2022/03/07 07:46:48;;;;;;;9.37;5.57;;;3.60;99.90;;;;;;5018202;28;20621;-93
2022/03/07 07:49:21;;;;;;;7.30;5.60;;;3.50;99.90;;;;;;5016965;28;20209;-92
2022/03/07 07:51:53;;;;;;;10.70;6.03;;;3.50;99.90;;;;;;5017382;28;20218;-92
2022/03/07 07:54:25;;;;;;;10.30;6.90;;;3.50;99.90;;;;;;5017229;28;20288;-91
2022/03/07 07:56:56;;;;;;;11.93;7.77;;;3.50;99.90;;;;;;5017090;28;20287;-93
2022/03/07 07:59:28;;;;;;;10.77;6.90;;;3.40;99.90;;;;;;5017233;28;20272;-92
2022/03/07 08:02:00;;;;;;;7.60;5.40;;;3.40;99.90;;;;;;5017231;28;20205;-92
2022/03/07 08:04:31;;;;;;;10.37;5.90;;;3.40;99.90;;;;;;5016894;28;20280;-92
2022/03/07 08:07:02;;;;;;;11.83;6.17;;;3.50;99.90;;;;;;5016979;28;20283;-92
2022/03/07 08:09:34;;;;;;;13.37;6.83;;;3.40;99.90;;;;;;5000865;28;20748;-92
2022/03/07 08:12:06;;;;;;;9.73;5.50;;;3.40;99.90;;;;;;4997162;28;20210;-93
2022/03/07 08:14:40;;;;;;;6.23;4.40;;;3.40;99.90;;;;;;4996356;28;20245;-94
2022/03/07 08:17:11;;;;;;;8.47;4.83;;;3.40;99.90;;;;;;4995533;28;20207;-92
2022/03/07 08:19:42;;;;;;;8.33;4.33;;;3.30;99.90;;;;;;4996024;28;20282;-92
2022/03/07 08:22:14;;;;;;;8.13;4.83;;;3.30;99.90;;;;;;4997393;28;20210;-92
2022/03/07 08:24:45;;;;;;;9.13;5.63;;;3.30;99.90;;;;;;4996941;28;20245;-91
2022/03/07 08:27:15;;;;;;;7.60;5.10;;;3.20;99.90;;;;;;5000439;28;20198;-94
2022/03/07 08:29:48;;;;;;;8.10;5.33;;;3.20;99.90;;;;;;4996850;28;20265;-93
2022/03/07 08:32:20;;;;;;;11.83;5.87;;;3.20;99.90;;;;;;4996982;28;20211;-93
2022/03/07 08:34:51;;;;;;;8.20;5.53;;;3.20;99.90;;;;;;4996652;28;20244;-92
2022/03/07 08:37:21;;;;;;;10.57;5.40;;;3.20;99.90;;;;;;5002693;28;20214;-93
2022/03/07 08:39:54;;;;;;;8.70;5.27;;;3.20;99.90;;;;;;4997247;28;20222;-93
2022/03/07 08:42:25;;;;;;;6.90;5.33;;;3.20;99.90;;;;;;4998634;28;20210;-93
2022/03/07 08:44:59;;;;;;;7.13;4.73;;;3.20;99.90;;;;;;5005728;28;20218;-93
2022/03/07 08:47:30;;;;;;;7.17;5.33;;;3.10;99.90;;;;;;5001175;28;20344;-93
2022/03/07 08:50:01;;;;;;;7.80;5.37;;;3.10;99.90;;;;;;4995866;28;20317;-93
2022/03/07 08:52:33;;;;;;;9.20;6.37;;;3.10;99.90;;;;;;4996408;28;20260;-93
2022/03/07 08:55:05;;;;;;;9.50;6.30;;;3.00;99.90;;;;;;4995689;28;20198;-93
2022/03/07 08:57:35;;;;;;;11.73;7.57;;;3.00;99.90;;;;;;4996623;28;20264;-92
2022/03/07 09:00:11;;;;;;;11.60;7.80;;;3.00;99.90;;;;;;4997064;28;20229;-92
2022/03/07 09:02:48;;;;;;;12.97;9.53;;;3.00;99.90;;;;;;4996844;28;20206;-93
2022/03/07 09:05:22;;;;;;;14.87;9.90;;;2.90;99.90;;;;;;4997208;28;20293;-93
2022/03/07 09:07:53;;;;;;;12.53;8.00;;;2.90;99.90;;;;;;4996221;28;20214;-92
2022/03/07 09:10:24;;;;;;;9.77;7.53;;;2.90;99.90;;;;;;4996285;28;20250;-92
2022/03/07 09:12:56;;;;;;;10.57;6.83;;;2.90;99.90;;;;;;4996990;28;20218;-91
2022/03/07 09:15:29;;;;;;;8.10;5.87;;;2.90;99.90;;;;;;4997698;28;20206;-93
2022/03/07 09:18:02;;;;;;;7.17;5.97;;;2.90;99.90;;;;;;5015653;28;20233;-93
2022/03/07 09:20:34;;;;;;;10.37;5.73;;;2.90;99.90;;;;;;5014856;28;20234;-93
2022/03/07 09:23:05;;;;;;;8.07;5.07;;;2.90;99.90;;;;;;5007645;28;20206;-93
2022/03/07 09:25:36;;;;;;;7.10;5.23;;;2.90;99.90;;;;;;5000681;28;20210;-93
2022/03/07 09:28:07;;;;;;;6.30;5.30;;;2.90;99.90;;;;;;4994602;28;20273;-93
2022/03/07 09:30:40;;;;;;;6.40;4.97;;;2.90;99.90;;;;;;5008797;28;20233;-92
2022/03/07 09:33:11;;;;;;;8.63;5.37;;;2.90;99.90;;;;;;5015551;28;20233;-92
2022/03/07 09:35:42;;;;;;;6.37;5.10;;;2.90;99.90;;;;;;5016151;28;20241;-93
2022/03/07 09:38:13;;;;;;;8.20;4.77;;;2.90;99.90;;;;;;5014754;28;20209;-94
2022/03/07 09:40:45;;;;;;;7.73;5.17;;;2.80;99.90;;;;;;5015537;28;20357;-92
2022/03/07 09:43:17;;;;;;;7.07;5.03;;;2.80;99.90;;;;;;5015887;28;20204;-93
2022/03/07 09:45:50;;;;;;;6.87;5.17;;;2.80;99.90;;;;;;5014792;28;20268;-92
2022/03/07 09:48:24;;;;;;;7.17;5.20;;;2.70;99.90;;;;;;5014554;28;20304;-93
2022/03/07 09:50:56;;;;;;;7.30;5.37;;;2.80;99.90;;;;;;5015748;28;20263;-93
2022/03/07 09:53:32;;;;;;;9.23;5.60;;;2.80;99.90;;;;;;5015268;28;20271;-94
2022/03/07 09:56:03;;;;;;;7.27;4.77;;;2.80;99.90;;;;;;5015510;28;20592;-94
2022/03/07 09:58:34;;;;;;;7.23;5.00;;;2.70;99.90;;;;;;5015256;28;20205;-92
2022/03/07 10:01:13;;;;;;;6.03;4.60;;;2.70;99.90;;;;;;5015343;28;20301;-93
2022/03/07 10:03:53;;;;;;;6.60;4.73;;;2.60;99.90;;;;;;5014030;28;20224;-93
2022/03/07 10:06:24;;;;;;;9.03;5.10;;;2.60;99.90;;;;;;5017285;28;20206;-94
2022/03/07 10:08:56;;;;;;;6.40;5.20;;;2.50;99.90;;;;;;5018278;28;20308;-94
2022/03/07 10:11:28;;;;;;;6.67;5.13;;;2.50;99.90;;;;;;5020566;28;20292;-93
2022/03/07 10:14:01;;;;;;;6.83;5.17;;;2.50;99.90;;;;;;5022923;28;20323;-93
2022/03/07 10:16:43;;;;;;;7.13;5.07;;;2.50;99.90;;;;;;5021912;28;20621;-92
2022/03/07 10:19:17;;;;;;;8.03;5.00;;;2.50;99.90;;;;;;5019630;28;20221;-93
2022/03/07 10:21:50;;;;;;;7.00;4.43;;;2.50;99.90;;;;;;5020519;28;20210;-90
2022/03/07 10:27:30;;;;;;;7.57;4.57;;;2.50;99.90;;;;;;5018512;28;20206;-91
2022/03/07 10:30:02;;;;;;;5.07;4.30;;;2.50;99.90;;;;;;5019862;28;20285;-93
2022/03/07 10:32:35;;;;;;;8.50;4.83;;;2.50;99.90;;;;;;5019171;28;20220;-93
2022/03/07 10:35:06;;;;;;;7.37;4.47;;;2.50;99.90;;;;;;5019042;28;20289;-92
2022/03/07 10:37:39;;;;;;;5.60;4.30;;;2.50;99.90;;;;;;5019088;28;20213;-93
2022/03/07 10:40:19;;;;;;;5.43;4.10;;;2.40;99.90;;;;;;5019692;28;20233;-95
2022/03/07 10:42:55;;;;;;;5.47;4.23;;;2.40;99.90;;;;;;5019365;28;20256;-93
2022/03/07 10:45:27;;;;;;;5.77;4.00;;;2.40;99.90;;;;;;5018867;28;20235;-93
2022/03/07 10:48:04;;;;;;;5.20;3.60;;;2.40;99.90;;;;;;5022321;28;20205;-93
2022/03/07 10:50:35;;;;;;;4.87;4.03;;;2.40;99.90;;;;;;5019358;28;20205;-93
2022/03/07 10:53:08;;;;;;;6.97;4.70;;;2.30;99.90;;;;;;5019924;28;20691;-92
2022/03/07 10:55:40;;;;;;;5.87;4.40;;;2.30;99.90;;;;;;5020230;28;20280;-92
2022/03/07 10:58:13;;;;;;;7.83;4.73;;;2.30;99.90;;;;;;5018706;28;20228;-94
2022/03/07 11:00:52;;;;;;;8.33;4.37;;;2.30;99.90;;;;;;5019265;28;20703;-93
2022/03/07 11:03:28;;;;;;;6.63;4.57;;;2.30;99.90;;;;;;5024371;28;20210;-93
2022/03/07 11:06:01;;;;;;;6.73;4.90;;;2.30;99.90;;;;;;5020866;28;20221;-93
2022/03/07 11:08:33;;;;;;;5.07;4.40;;;2.30;99.90;;;;;;5020557;28;20289;-93
2022/03/07 11:11:04;;;;;;;8.17;4.80;;;2.30;99.90;;;;;;5027997;28;20224;-92
2022/03/07 11:13:34;;;;;;;5.47;4.80;;;2.40;99.90;;;;;;5038024;28;20194;-94
2022/03/07 11:16:06;;;;;;;5.57;4.77;;;2.40;99.90;;;;;;5036658;28;20194;-90
2022/03/07 11:18:40;;;;;;;8.27;5.33;;;2.40;99.90;;;;;;5036015;28;20194;-93
2022/03/07 11:21:12;;;;;;;6.80;5.23;;;2.40;99.90;;;;;;5024485;28;20300;-94
2022/03/07 11:23:45;;;;;;;6.40;5.23;;;2.40;99.90;;;;;;5013885;28;20228;-94
2022/03/07 11:26:20;;;;;;;7.03;5.37;;;2.30;99.90;;;;;;5002282;28;20214;-93
2022/03/07 11:28:52;;;;;;;7.03;4.83;;;2.30;99.90;;;;;;4999484;28;20206;-94
2022/03/07 11:31:26;;;;;;;7.13;4.93;;;2.30;99.90;;;;;;5009499;28;20198;-94
2022/03/07 11:33:59;;;;;;;6.37;5.10;;;2.30;99.90;;;;;;5018877;28;20202;-94
2022/03/07 11:36:31;;;;;;;5.87;4.80;;;2.20;99.90;;;;;;5018197;28;20206;-94
2022/03/07 11:39:04;;;;;;;5.67;4.53;;;2.20;99.90;;;;;;5009113;28;20233;-90
2022/03/07 11:41:38;;;;;;;6.13;5.20;;;2.20;99.90;;;;;;5012781;28;20300;-91
2022/03/07 11:44:11;;;;;;;6.70;5.40;;;2.20;99.90;;;;;;5008233;28;20205;-94
2022/03/07 11:46:45;;;;;;;7.77;5.17;;;2.20;99.90;;;;;;5006019;28;20205;-93
2022/03/07 11:49:31;;;;;;;6.73;5.33;;;2.20;99.90;;;;;;5014382;28;20284;-91
2022/03/07 11:52:05;;;;;;;7.80;5.23;;;2.10;99.90;;;;;;5024252;28;20198;-94
2022/03/07 11:54:37;;;;;;;6.40;4.97;;;2.10;99.90;;;;;;5021829;28;20719;-92
2022/03/07 11:57:13;;;;;;;5.87;5.10;;;2.10;99.90;;;;;;5019553;28;20209;-92
2022/03/07 11:59:44;;;;;;;6.10;4.87;;;2.10;99.90;;;;;;5019208;28;20259;-94
2022/03/07 12:02:15;;;;;;;6.80;5.30;;;2.10;99.90;;;;;;5017935;28;20292;-94
2022/03/07 12:04:49;;;;;;;5.90;5.00;;;2.00;99.90;;;;;;5022366;28;20545;-94
2022/03/07 12:07:27;;;;;;;7.63;5.10;;;2.10;99.90;;;;;;5016146;28;20201;-94
2022/03/07 12:10:08;;;;;;;6.17;5.10;;;2.10;99.90;;;;;;5016357;28;20260;-94
2022/03/07 12:12:40;;;;;;;6.73;5.07;;;2.10;99.90;;;;;;5017491;28;20233;-92
2022/03/07 12:15:31;;;;;;;8.30;5.03;;;2.10;99.90;;;;;;5017452;28;20205;-93
2022/03/07 12:18:03;;;;;;;5.07;4.40;;;2.00;99.90;;;;;;5017572;28;20214;-94
2022/03/07 12:20:46;;;;;;;7.13;4.77;;;2.00;99.90;;;;;;5017748;28;20225;-93
2022/03/07 12:23:19;;;;;;;7.30;4.50;;;2.00;99.90;;;;;;5018164;28;20317;-94
2022/03/07 12:25:59;;;;;;;5.37;4.33;;;1.90;99.90;;;;;;5020592;28;20252;-93
2022/03/07 12:28:31;;;;;;;6.43;4.87;;;1.90;99.90;;;;;;5015842;28;20633;-92
2022/03/07 12:31:03;;;;;;;7.70;4.77;;;2.00;99.90;;;;;;5015876;28;20609;-93
2022/03/07 12:33:34;;;;;;;7.03;5.10;;;1.90;99.90;;;;;;5015393;28;20209;-93
2022/03/07 12:36:27;;;;;;;6.17;4.27;;;1.90;99.90;;;;;;5021257;28;20213;-94
2022/03/07 12:39:04;;;;;;;6.97;4.70;;;1.80;99.90;;;;;;5015828;28;20205;-94
2022/03/07 12:41:36;;;;;;;6.13;4.53;;;1.90;99.90;;;;;;5015781;28;20663;-94
2022/03/07 12:44:07;;;;;;;4.93;4.43;;;1.80;99.90;;;;;;5016606;28;20614;-94
2022/03/07 12:46:40;;;;;;;5.57;4.33;;;1.80;99.90;;;;;;5016015;28;20220;-93
2022/03/07 12:49:10;;;;;;;8.73;4.30;;;1.70;99.90;;;;;;5015893;28;20541;-94
2022/03/07 12:51:44;;;;;;;6.47;4.87;;;1.80;99.90;;;;;;5016115;28;20237;-94
2022/03/07 12:54:15;;;;;;;4.67;4.23;;;1.70;99.90;;;;;;5014687;28;20296;-94
2022/03/07 12:56:47;;;;;;;7.17;4.70;;;1.70;99.90;;;;;;5017118;28;20244;-94
2022/03/07 12:59:26;;;;;;;5.27;4.50;;;1.70;99.90;;;;;;5016273;28;20208;-93
2022/03/07 13:01:58;;;;;;;5.40;4.27;;;1.70;99.90;;;;;;5015800;28;20328;-92
2022/03/07 13:04:31;;;;;;;4.80;4.20;;;1.70;99.90;;;;;;5015758;28;20208;-92
2022/03/07 13:07:11;;;;;;;4.70;4.13;;;1.70;99.90;;;;;;5015219;28;20251;-93
2022/03/07 13:09:45;;;;;;;4.70;4.17;;;1.70;99.90;;;;;;4996678;28;20237;-94
2022/03/07 13:12:16;;;;;;;6.20;4.40;;;1.60;99.90;;;;;;4996813;28;20210;-93
2022/03/07 13:14:47;;;;;;;8.27;4.60;;;1.60;99.90;;;;;;4996829;28;20630;-93
2022/03/07 13:17:19;;;;;;;6.00;4.30;;;1.60;99.90;;;;;;4999689;28;20206;-93
2022/03/07 13:19:51;;;;;;;8.43;4.60;;;1.60;99.90;;;;;;5015328;28;20261;-92
2022/03/07 13:22:25;;;;;;;5.63;3.90;;;1.60;99.90;;;;;;5015366;28;20245;-93
2022/03/07 13:24:58;;;;;;;6.27;4.20;;;1.60;99.90;;;;;;4997925;28;20238;-94
2022/03/07 13:27:30;;;;;;;6.50;4.10;;;1.60;99.90;;;;;;5001684;28;20217;-92
2022/03/07 13:30:06;;;;;;;5.20;3.93;;;1.50;99.90;;;;;;4998639;28;20248;-94
2022/03/07 13:32:41;;;;;;;5.17;3.73;;;1.50;99.90;;;;;;4996694;28;20210;-93
2022/03/07 13:35:24;;;;;;;4.53;3.63;;;1.50;99.90;;;;;;4995892;28;20699;-94
2022/03/07 13:37:57;;;;;;;7.33;3.90;;;1.50;99.90;;;;;;4994892;28;20301;-94
2022/03/07 13:40:33;;;;;;;5.33;4.00;;;1.50;99.90;;;;;;4998955;28;20214;-93